sensor_id;sensor_type;location;lat;lon;timestamp;pressure;altitude;pressure_sealevel;temperature;humidity
74868;BME280;63419;42.262;12.210;2022-09-21T00:01:19;97386.31;;;16.18;100.00
74868;BME280;63419;42.262;12.210;2022-09-21T00:03:46;97389.22;;;16.15;100.00
74868;BME280;63419;42.262;12.210;2022-09-21T00:06:19;97392.09;;;16.31;100.00
74868;BME280;63419;42.262;12.210;2022-09-21T00:08:47;97395.50;;;16.51;100.00
74868;BME280;63419;42.262;12.210;2022-09-21T00:11:18;97386.31;;;16.57;100.00
74868;BME280;63419;42.262;12.210;2022-09-21T00:14:05;97386.84;;;16.70;100.00
74868;BME280;63419;42.262;12.210;2022-09-21T00:16:32;97381.91;;;16.58;100.00
74868;BME280;63419;42.262;12.210;2022-09-21T00:18:59;97392.63;;;16.74;100.00
74868;BME280;63419;42.262;12.210;2022-09-21T00:21:25;97386.81;;;16.80;100.00
74868;BME280;63419;42.262;12.210;2022-09-21T00:23:55;97388.75;;;16.88;100.00
74868;BME280;63419;42.262;12.210;2022-09-21T00:26:25;97394.25;;;16.85;100.00
74868;BME280;63419;42.262;12.210;2022-09-21T00:29:00;97395.91;;;16.66;100.00
74868;BME280;63419;42.262;12.210;2022-09-21T00:31:28;97388.78;;;16.59;100.00
74868;BME280;63419;42.262;12.210;2022-09-21T00:33:56;97396.75;;;16.67;100.00
74868;BME280;63419;42.262;12.210;2022-09-21T00:36:25;97385.75;;;16.83;100.00
74868;BME280;63419;42.262;12.210;2022-09-21T00:39:00;97377.66;;;16.86;100.00
74868;BME280;63419;42.262;12.210;2022-09-21T00:41:29;97385.34;;;16.68;100.00
74868;BME280;63419;42.262;12.210;2022-09-21T00:46:42;97385.75;;;16.73;100.00
74868;BME280;63419;42.262;12.210;2022-09-21T00:49:10;97383.84;;;16.85;100.00
74868;BME280;63419;42.262;12.210;2022-09-21T00:51:37;97384.78;;;16.93;100.00
74868;BME280;63419;42.262;12.210;2022-09-21T00:54:09;97382.53;;;17.08;100.00
74868;BME280;63419;42.262;12.210;2022-09-21T00:56:37;97381.19;;;17.04;100.00
74868;BME280;63419;42.262;12.210;2022-09-21T00:59:05;97382.44;;;16.81;100.00
74868;BME280;63419;42.262;12.210;2022-09-21T01:01:31;97389.59;;;16.69;100.00
74868;BME280;63419;42.262;12.210;2022-09-21T01:04:04;97391.25;;;16.41;100.00
74868;BME280;63419;42.262;12.210;2022-09-21T01:06:32;97395.09;;;16.07;100.00
74868;BME280;63419;42.262;12.210;2022-09-21T01:09:00;97394.81;;;16.01;100.00
74868;BME280;63419;42.262;12.210;2022-09-21T01:18:04;97396.50;;;15.71;100.00
74868;BME280;63419;42.262;12.210;2022-09-21T01:23:20;97388.47;;;15.43;100.00
74868;BME280;63419;42.262;12.210;2022-09-21T01:32:10;97389.09;;;15.56;100.00
74868;BME280;63419;42.262;12.210;2022-09-21T01:35:18;97390.34;;;15.72;100.00
74868;BME280;63419;42.262;12.210;2022-09-21T01:38:06;97389.50;;;15.61;100.00
74868;BME280;63419;42.262;12.210;2022-09-21T01:40:40;97399.41;;;15.37;100.00
74868;BME280;63419;42.262;12.210;2022-09-21T01:43:13;97392.44;;;15.37;100.00
74868;BME280;63419;42.262;12.210;2022-09-21T01:45:50;97394.63;;;15.11;100.00
74868;BME280;63419;42.262;12.210;2022-09-21T01:48:22;97388.41;;;15.23;100.00
74868;BME280;63419;42.262;12.210;2022-09-21T01:50:55;97391.00;;;15.23;100.00
74868;BME280;63419;42.262;12.210;2022-09-21T01:53:31;97391.50;;;15.38;100.00
74868;BME280;63419;42.262;12.210;2022-09-21T01:56:06;97385.88;;;15.43;100.00
74868;BME280;63419;42.262;12.210;2022-09-21T02:01:20;97381.28;;;15.56;100.00
74868;BME280;63419;42.262;12.210;2022-09-21T02:04:02;97372.25;;;15.51;100.00
74868;BME280;63419;42.262;12.210;2022-09-21T02:06:30;97375.91;;;15.48;100.00
74868;BME280;63419;42.262;12.210;2022-09-21T02:08:57;97370.22;;;15.64;100.00
74868;BME280;63419;42.262;12.210;2022-09-21T02:11:23;97371.56;;;15.58;100.00
74868;BME280;63419;42.262;12.210;2022-09-21T02:13:52;97379.38;;;15.58;100.00
74868;BME280;63419;42.262;12.210;2022-09-21T02:16:46;97364.88;;;15.66;100.00
74868;BME280;63419;42.262;12.210;2022-09-21T02:25:20;97365.09;;;16.13;100.00
74868;BME280;63419;42.262;12.210;2022-09-21T02:28:04;97360.84;;;16.41;100.00
74868;BME280;63419;42.262;12.210;2022-09-21T02:30:40;97363.31;;;16.43;100.00
74868;BME280;63419;42.262;12.210;2022-09-21T02:33:31;97363.97;;;16.54;100.00
74868;BME280;63419;42.262;12.210;2022-09-21T02:36:15;97367.69;;;16.32;100.00
74868;BME280;63419;42.262;12.210;2022-09-21T02:38:52;97374.78;;;13.50;100.00
74868;BME280;63419;42.262;12.210;2022-09-21T02:42:33;97375.22;;;12.87;100.00
74868;BME280;63419;42.262;12.210;2022-09-21T02:44:41;97374.94;;;13.81;100.00
74868;BME280;63419;42.262;12.210;2022-09-21T02:47:18;97372.06;;;14.27;100.00
74868;BME280;63419;42.262;12.210;2022-09-21T02:49:56;97375.94;;;14.01;100.00
74868;BME280;63419;42.262;12.210;2022-09-21T02:52:27;97380.50;;;14.20;100.00
74868;BME280;63419;42.262;12.210;2022-09-21T02:54:56;97373.63;;;14.30;100.00
74868;BME280;63419;42.262;12.210;2022-09-21T02:57:23;97374.44;;;14.52;100.00
74868;BME280;63419;42.262;12.210;2022-09-21T02:59:51;97373.47;;;14.64;100.00
74868;BME280;63419;42.262;12.210;2022-09-21T03:02:17;97372.41;;;14.55;100.00
74868;BME280;63419;42.262;12.210;2022-09-21T03:04:46;97375.13;;;14.54;100.00
74868;BME280;63419;42.262;12.210;2022-09-21T03:07:17;97377.28;;;14.48;100.00
74868;BME280;63419;42.262;12.210;2022-09-21T03:09:46;97373.78;;;14.71;100.00
74868;BME280;63419;42.262;12.210;2022-09-21T03:12:16;97376.53;;;15.00;100.00
74868;BME280;63419;42.262;12.210;2022-09-21T03:14:51;97375.31;;;15.04;100.00
74868;BME280;63419;42.262;12.210;2022-09-21T03:17:21;97366.97;;;15.31;100.00
74868;BME280;63419;42.262;12.210;2022-09-21T03:19:48;97379.34;;;15.18;100.00
74868;BME280;63419;42.262;12.210;2022-09-21T03:22:14;97378.00;;;15.54;100.00
74868;BME280;63419;42.262;12.210;2022-09-21T03:24:42;97374.97;;;15.59;100.00
74868;BME280;63419;42.262;12.210;2022-09-21T03:27:16;97377.09;;;15.75;100.00
74868;BME280;63419;42.262;12.210;2022-09-21T03:29:43;97379.03;;;15.83;100.00
74868;BME280;63419;42.262;12.210;2022-09-21T03:32:12;97375.91;;;15.89;100.00
74868;BME280;63419;42.262;12.210;2022-09-21T03:34:39;97374.66;;;15.83;100.00
74868;BME280;63419;42.262;12.210;2022-09-21T03:37:07;97373.28;;;15.98;100.00
74868;BME280;63419;42.262;12.210;2022-09-21T03:39:43;97374.56;;;16.14;100.00
74868;BME280;63419;42.262;12.210;2022-09-21T03:42:12;97372.09;;;16.22;100.00
74868;BME280;63419;42.262;12.210;2022-09-21T03:44:39;97372.91;;;16.13;100.00
74868;BME280;63419;42.262;12.210;2022-09-21T03:47:06;97372.78;;;16.24;100.00
74868;BME280;63419;42.262;12.210;2022-09-21T03:49:32;97368.38;;;16.25;100.00
74868;BME280;63419;42.262;12.210;2022-09-21T03:51:59;97372.38;;;16.19;100.00
74868;BME280;63419;42.262;12.210;2022-09-21T03:54:25;97375.66;;;16.21;100.00
74868;BME280;63419;42.262;12.210;2022-09-21T03:56:52;97374.69;;;16.22;100.00
74868;BME280;63419;42.262;12.210;2022-09-21T03:59:19;97379.75;;;15.94;100.00
74868;BME280;63419;42.262;12.210;2022-09-21T04:01:45;97385.38;;;15.49;100.00
74868;BME280;63419;42.262;12.210;2022-09-21T04:04:11;97398.50;;;14.54;100.00
74868;BME280;63419;42.262;12.210;2022-09-21T04:06:37;97394.50;;;14.28;100.00
74868;BME280;63419;42.262;12.210;2022-09-21T04:09:07;97401.00;;;14.23;100.00
74868;BME280;63419;42.262;12.210;2022-09-21T04:11:34;97404.00;;;14.07;100.00
74868;BME280;63419;42.262;12.210;2022-09-21T04:14:03;97410.06;;;14.28;100.00
74868;BME280;63419;42.262;12.210;2022-09-21T04:16:30;97408.69;;;14.24;100.00
74868;BME280;63419;42.262;12.210;2022-09-21T04:19:00;97409.72;;;14.22;100.00
74868;BME280;63419;42.262;12.210;2022-09-21T04:21:30;97405.16;;;14.46;100.00
74868;BME280;63419;42.262;12.210;2022-09-21T04:23:57;97417.72;;;14.30;100.00
74868;BME280;63419;42.262;12.210;2022-09-21T04:26:29;97421.66;;;14.45;100.00
74868;BME280;63419;42.262;12.210;2022-09-21T04:28:56;97418.13;;;14.46;100.00
74868;BME280;63419;42.262;12.210;2022-09-21T04:31:24;97428.13;;;14.19;100.00
74868;BME280;63419;42.262;12.210;2022-09-21T04:33:52;97423.66;;;14.21;100.00
74868;BME280;63419;42.262;12.210;2022-09-21T04:36:20;97424.34;;;14.55;100.00
74868;BME280;63419;42.262;12.210;2022-09-21T04:38:47;97424.59;;;14.52;100.00
74868;BME280;63419;42.262;12.210;2022-09-21T04:41:14;97422.38;;;14.15;100.00
74868;BME280;63419;42.262;12.210;2022-09-21T04:43:45;97422.50;;;14.14;100.00
74868;BME280;63419;42.262;12.210;2022-09-21T04:46:15;97423.25;;;13.93;100.00
74868;BME280;63419;42.262;12.210;2022-09-21T04:48:42;97423.22;;;14.04;100.00
74868;BME280;63419;42.262;12.210;2022-09-21T04:51:10;97422.50;;;14.14;100.00
74868;BME280;63419;42.262;12.210;2022-09-21T04:53:38;97421.72;;;14.34;100.00
74868;BME280;63419;42.262;12.210;2022-09-21T04:56:07;97427.31;;;14.18;100.00
74868;BME280;63419;42.262;12.210;2022-09-21T04:58:34;97433.53;;;12.69;100.00
74868;BME280;63419;42.262;12.210;2022-09-21T05:01:01;97436.00;;;13.06;100.00
74868;BME280;63419;42.262;12.210;2022-09-21T05:03:29;97430.00;;;13.28;100.00
74868;BME280;63419;42.262;12.210;2022-09-21T05:05:58;97430.84;;;13.74;100.00
74868;BME280;63419;42.262;12.210;2022-09-21T05:08:26;97433.19;;;13.77;100.00
74868;BME280;63419;42.262;12.210;2022-09-21T05:11:14;97438.59;;;13.96;100.00
74868;BME280;63419;42.262;12.210;2022-09-21T05:13:45;97440.03;;;13.89;100.00
74868;BME280;63419;42.262;12.210;2022-09-21T05:16:11;97435.09;;;13.63;100.00
74868;BME280;63419;42.262;12.210;2022-09-21T05:18:41;97447.69;;;13.79;100.00
74868;BME280;63419;42.262;12.210;2022-09-21T05:21:15;97442.03;;;13.29;100.00
74868;BME280;63419;42.262;12.210;2022-09-21T05:23:41;97438.84;;;13.14;100.00
74868;BME280;63419;42.262;12.210;2022-09-21T05:26:09;97443.84;;;12.93;100.00
74868;BME280;63419;42.262;12.210;2022-09-21T05:28:36;97443.50;;;12.98;100.00
74868;BME280;63419;42.262;12.210;2022-09-21T05:40:13;97438.84;;;13.82;100.00
74868;BME280;63419;42.262;12.210;2022-09-21T05:42:41;97450.47;;;13.99;100.00
74868;BME280;63419;42.262;12.210;2022-09-21T05:45:13;97441.69;;;14.22;100.00
74868;BME280;63419;42.262;12.210;2022-09-21T05:47:58;97444.84;;;14.37;100.00
74868;BME280;63419;42.262;12.210;2022-09-21T05:56:52;97446.56;;;14.80;100.00
74868;BME280;63419;42.262;12.210;2022-09-21T06:04:56;97472.72;;;13.69;100.00
74868;BME280;63419;42.262;12.210;2022-09-21T06:07:24;97471.88;;;13.80;100.00
74868;BME280;63419;42.262;12.210;2022-09-21T06:09:53;97468.91;;;14.39;100.00
74868;BME280;63419;42.262;12.210;2022-09-21T06:12:25;97469.59;;;14.85;100.00
74868;BME280;63419;42.262;12.210;2022-09-21T06:14:51;97467.16;;;15.14;100.00
74868;BME280;63419;42.262;12.210;2022-09-21T06:17:17;97470.06;;;15.42;100.00
74868;BME280;63419;42.262;12.210;2022-09-21T06:19:43;97473.66;;;15.51;100.00
74868;BME280;63419;42.262;12.210;2022-09-21T06:22:09;97473.44;;;15.64;100.00
74868;BME280;63419;42.262;12.210;2022-09-21T06:24:38;97477.59;;;14.61;100.00
74868;BME280;63419;42.262;12.210;2022-09-21T06:27:07;97489.41;;;14.10;100.00
74868;BME280;63419;42.262;12.210;2022-09-21T06:29:34;97487.53;;;14.44;100.00
74868;BME280;63419;42.262;12.210;2022-09-21T06:32:03;97481.84;;;14.51;100.00
74868;BME280;63419;42.262;12.210;2022-09-21T06:34:30;97491.06;;;14.43;100.00
74868;BME280;63419;42.262;12.210;2022-09-21T06:36:56;97487.81;;;14.30;100.00
74868;BME280;63419;42.262;12.210;2022-09-21T06:39:23;97490.50;;;14.72;100.00
74868;BME280;63419;42.262;12.210;2022-09-21T06:41:52;97487.72;;;15.48;100.00
74868;BME280;63419;42.262;12.210;2022-09-21T06:44:19;97482.94;;;15.74;100.00
74868;BME280;63419;42.262;12.210;2022-09-21T06:46:48;97477.94;;;15.61;100.00
74868;BME280;63419;42.262;12.210;2022-09-21T06:49:14;97478.69;;;16.43;100.00
74868;BME280;63419;42.262;12.210;2022-09-21T06:51:40;97478.72;;;17.11;100.00
74868;BME280;63419;42.262;12.210;2022-09-21T06:54:07;97480.16;;;17.43;100.00
74868;BME280;63419;42.262;12.210;2022-09-21T06:56:34;97476.56;;;17.82;100.00
74868;BME280;63419;42.262;12.210;2022-09-21T06:59:01;97477.66;;;17.89;100.00
74868;BME280;63419;42.262;12.210;2022-09-21T07:01:27;97483.41;;;17.93;100.00
74868;BME280;63419;42.262;12.210;2022-09-21T07:03:53;97479.19;;;18.10;100.00
74868;BME280;63419;42.262;12.210;2022-09-21T07:06:25;97479.66;;;18.23;100.00
74868;BME280;63419;42.262;12.210;2022-09-21T07:08:52;97481.75;;;18.55;100.00
74868;BME280;63419;42.262;12.210;2022-09-21T07:11:18;97486.09;;;18.46;100.00
74868;BME280;63419;42.262;12.210;2022-09-21T07:13:45;97491.78;;;18.42;100.00
74868;BME280;63419;42.262;12.210;2022-09-21T07:16:13;97492.69;;;18.51;100.00
74868;BME280;63419;42.262;12.210;2022-09-21T07:18:45;97496.84;;;18.43;100.00
74868;BME280;63419;42.262;12.210;2022-09-21T07:21:11;97503.41;;;18.65;100.00
74868;BME280;63419;42.262;12.210;2022-09-21T07:23:39;97504.69;;;18.61;100.00
74868;BME280;63419;42.262;12.210;2022-09-21T07:26:12;97503.66;;;18.54;100.00
74868;BME280;63419;42.262;12.210;2022-09-21T07:28:39;97521.56;;;18.67;100.00
74868;BME280;63419;42.262;12.210;2022-09-21T07:31:14;97517.69;;;18.53;100.00
74868;BME280;63419;42.262;12.210;2022-09-21T07:33:41;97524.56;;;18.54;100.00
74868;BME280;63419;42.262;12.210;2022-09-21T07:36:10;97522.97;;;18.43;100.00
74868;BME280;63419;42.262;12.210;2022-09-21T07:38:42;97528.66;;;18.75;100.00
74868;BME280;63419;42.262;12.210;2022-09-21T07:41:12;97532.69;;;18.69;100.00
74868;BME280;63419;42.262;12.210;2022-09-21T07:43:43;97536.81;;;19.08;100.00
74868;BME280;63419;42.262;12.210;2022-09-21T07:46:13;97542.44;;;19.13;100.00
74868;BME280;63419;42.262;12.210;2022-09-21T07:48:41;97537.03;;;19.14;100.00
74868;BME280;63419;42.262;12.210;2022-09-21T07:51:13;97546.09;;;19.20;100.00
74868;BME280;63419;42.262;12.210;2022-09-21T07:53:42;97538.91;;;19.22;100.00
74868;BME280;63419;42.262;12.210;2022-09-21T07:56:15;97550.28;;;19.13;100.00
74868;BME280;63419;42.262;12.210;2022-09-21T07:58:42;97540.97;;;19.36;100.00
74868;BME280;63419;42.262;12.210;2022-09-21T08:01:28;97538.09;;;19.48;100.00
74868;BME280;63419;42.262;12.210;2022-09-21T08:03:58;97538.59;;;19.51;100.00
74868;BME280;63419;42.262;12.210;2022-09-21T08:06:28;97548.75;;;19.54;100.00
74868;BME280;63419;42.262;12.210;2022-09-21T08:08:55;97551.81;;;19.50;100.00
74868;BME280;63419;42.262;12.210;2022-09-21T08:11:21;97557.91;;;19.76;100.00
74868;BME280;63419;42.262;12.210;2022-09-21T08:13:54;97551.06;;;19.84;100.00
74868;BME280;63419;42.262;12.210;2022-09-21T08:16:20;97552.44;;;20.30;100.00
74868;BME280;63419;42.262;12.210;2022-09-21T08:18:47;97560.72;;;20.17;100.00
74868;BME280;63419;42.262;12.210;2022-09-21T08:21:16;97560.88;;;20.08;100.00
74868;BME280;63419;42.262;12.210;2022-09-21T08:23:43;97566.66;;;20.28;100.00
74868;BME280;63419;42.262;12.210;2022-09-21T08:26:13;97564.78;;;20.46;100.00
74868;BME280;63419;42.262;12.210;2022-09-21T08:28:48;97563.75;;;20.31;100.00
74868;BME280;63419;42.262;12.210;2022-09-21T08:31:19;97558.91;;;20.61;100.00
74868;BME280;63419;42.262;12.210;2022-09-21T08:33:48;97563.41;;;20.85;100.00
74868;BME280;63419;42.262;12.210;2022-09-21T08:36:18;97555.66;;;20.67;100.00
74868;BME280;63419;42.262;12.210;2022-09-21T08:38:48;97562.81;;;20.57;100.00
74868;BME280;63419;42.262;12.210;2022-09-21T08:47:21;97552.75;;;21.52;100.00
74868;BME280;63419;42.262;12.210;2022-09-21T08:49:58;97551.75;;;21.53;100.00
74868;BME280;63419;42.262;12.210;2022-09-21T08:52:30;97549.00;;;22.11;100.00
74868;BME280;63419;42.262;12.210;2022-09-21T08:55:24;97550.59;;;21.72;100.00
74868;BME280;63419;42.262;12.210;2022-09-21T08:57:54;97554.69;;;21.75;100.00
74868;BME280;63419;42.262;12.210;2022-09-21T09:00:22;97546.94;;;21.81;100.00
74868;BME280;63419;42.262;12.210;2022-09-21T09:06:40;97552.53;;;22.34;100.00
74868;BME280;63419;42.262;12.210;2022-09-21T09:09:34;97548.44;;;22.63;100.00
74868;BME280;63419;42.262;12.210;2022-09-21T09:21:48;97557.81;;;23.12;100.00
74868;BME280;63419;42.262;12.210;2022-09-21T09:27:12;97568.56;;;23.02;100.00
74868;BME280;63419;42.262;12.210;2022-09-21T09:30:02;97553.09;;;23.45;100.00
74868;BME280;63419;42.262;12.210;2022-09-21T09:38:18;97555.13;;;24.03;100.00
74868;BME280;63419;42.262;12.210;2022-09-21T09:50:11;97552.75;;;24.38;100.00
74868;BME280;63419;42.262;12.210;2022-09-21T09:52:40;97556.34;;;24.66;100.00
74868;BME280;63419;42.262;12.210;2022-09-21T09:55:24;97543.34;;;24.86;100.00
74868;BME280;63419;42.262;12.210;2022-09-21T09:57:54;97550.31;;;25.16;100.00
74868;BME280;63419;42.262;12.210;2022-09-21T10:00:21;97542.66;;;24.78;100.00
74868;BME280;63419;42.262;12.210;2022-09-21T10:02:55;97546.78;;;23.84;100.00
74868;BME280;63419;42.262;12.210;2022-09-21T10:07:55;97539.00;;;25.00;100.00
74868;BME280;63419;42.262;12.210;2022-09-21T10:10:35;97538.53;;;25.18;100.00
74868;BME280;63419;42.262;12.210;2022-09-21T10:13:08;97534.41;;;25.59;100.00
74868;BME280;63419;42.262;12.210;2022-09-21T10:15:47;97536.75;;;26.10;100.00
74868;BME280;63419;42.262;12.210;2022-09-21T10:26:44;97520.53;;;27.28;93.25
74868;BME280;63419;42.262;12.210;2022-09-21T10:34:22;97523.56;;;27.25;94.60
74868;BME280;63419;42.262;12.210;2022-09-21T10:36:52;97522.78;;;27.31;86.44
74868;BME280;63419;42.262;12.210;2022-09-21T10:39:28;97525.41;;;27.65;88.86
74868;BME280;63419;42.262;12.210;2022-09-21T10:42:05;97526.63;;;27.62;96.63
74868;BME280;63419;42.262;12.210;2022-09-21T10:44:51;97531.09;;;26.88;92.93
74868;BME280;63419;42.262;12.210;2022-09-21T10:47:37;97533.19;;;27.33;77.42
74868;BME280;63419;42.262;12.210;2022-09-21T10:52:56;97528.22;;;26.70;83.06
74868;BME280;63419;42.262;12.210;2022-09-21T10:55:27;97525.78;;;28.40;84.28
74868;BME280;63419;42.262;12.210;2022-09-21T10:57:58;97531.41;;;28.05;79.37
74868;BME280;63419;42.262;12.210;2022-09-21T11:06:51;97522.47;;;29.15;72.03
74868;BME280;63419;42.262;12.210;2022-09-21T11:09:25;97530.00;;;27.89;71.48
74868;BME280;63419;42.262;12.210;2022-09-21T11:12:32;97512.25;;;29.12;69.43
74868;BME280;63419;42.262;12.210;2022-09-21T11:15:14;97515.22;;;29.48;62.81
74868;BME280;63419;42.262;12.210;2022-09-21T11:18:15;97518.06;;;29.71;62.66
74868;BME280;63419;42.262;12.210;2022-09-21T11:20:57;97508.34;;;31.59;52.74
74868;BME280;63419;42.262;12.210;2022-09-21T11:24:02;97509.34;;;30.68;54.03
74868;BME280;63419;42.262;12.210;2022-09-21T11:26:43;97499.13;;;30.65;44.51
74868;BME280;63419;42.262;12.210;2022-09-21T11:29:46;97494.22;;;33.02;47.59
74868;BME280;63419;42.262;12.210;2022-09-21T11:53:45;97507.81;;;29.75;49.66
74868;BME280;63419;42.262;12.210;2022-09-21T11:56:57;97497.66;;;31.59;43.51
74868;BME280;63419;42.262;12.210;2022-09-21T11:59:42;97503.69;;;29.97;42.18
74868;BME280;63419;42.262;12.210;2022-09-21T12:08:51;97508.63;;;26.57;65.35
74868;BME280;63419;42.262;12.210;2022-09-21T12:11:49;97489.41;;;30.59;56.74
74868;BME280;63419;42.262;12.210;2022-09-21T12:17:28;97483.72;;;32.50;45.33
74868;BME280;63419;42.262;12.210;2022-09-21T12:20:24;97485.44;;;33.41;40.17
74868;BME280;63419;42.262;12.210;2022-09-21T12:23:04;97478.19;;;33.97;40.46
74868;BME280;63419;42.262;12.210;2022-09-21T12:25:41;97490.56;;;29.40;45.39
74868;BME280;63419;42.262;12.210;2022-09-21T12:28:30;97496.25;;;29.44;46.25
74868;BME280;63419;42.262;12.210;2022-09-21T12:34:16;97476.53;;;31.69;41.30
74868;BME280;63419;42.262;12.210;2022-09-21T12:37:07;97475.03;;;33.78;38.82
74868;BME280;63419;42.262;12.210;2022-09-21T12:43:02;97470.41;;;33.34;35.15
74868;BME280;63419;42.262;12.210;2022-09-21T12:45:50;97465.50;;;34.64;32.63
74868;BME280;63419;42.262;12.210;2022-09-21T12:48:37;97460.03;;;34.81;30.30
74868;BME280;63419;42.262;12.210;2022-09-21T12:51:21;97463.66;;;34.15;34.87
74868;BME280;63419;42.262;12.210;2022-09-21T12:53:55;97486.28;;;29.14;39.68
74868;BME280;63419;42.262;12.210;2022-09-21T12:56:43;97493.22;;;27.21;52.14
74868;BME280;63419;42.262;12.210;2022-09-21T12:59:32;97480.72;;;27.75;53.33
74868;BME280;63419;42.262;12.210;2022-09-21T13:08:15;97470.19;;;28.20;49.84
74868;BME280;63419;42.262;12.210;2022-09-21T13:10:57;97458.38;;;30.95;42.35
74868;BME280;63419;42.262;12.210;2022-09-21T13:14:06;97450.66;;;32.39;39.53
74868;BME280;63419;42.262;12.210;2022-09-21T13:16:38;97466.84;;;28.70;46.46
74868;BME280;63419;42.262;12.210;2022-09-21T13:19:21;97453.88;;;29.31;49.94
74868;BME280;63419;42.262;12.210;2022-09-21T13:22:23;97463.94;;;28.01;56.35
74868;BME280;63419;42.262;12.210;2022-09-21T13:25:28;97476.53;;;25.99;62.93
74868;BME280;63419;42.262;12.210;2022-09-21T13:30:48;97445.63;;;29.94;48.81
74868;BME280;63419;42.262;12.210;2022-09-21T13:36:02;97448.28;;;29.39;47.38
74868;BME280;63419;42.262;12.210;2022-09-21T13:49:18;97430.94;;;33.64;40.19
74868;BME280;63419;42.262;12.210;2022-09-21T13:57:39;97443.28;;;29.86;52.58
74868;BME280;63419;42.262;12.210;2022-09-21T14:02:58;97435.16;;;29.00;68.24
74868;BME280;63419;42.262;12.210;2022-09-21T14:05:53;97442.06;;;29.01;62.08
74868;BME280;63419;42.262;12.210;2022-09-21T14:08:32;97441.06;;;29.65;63.29
74868;BME280;63419;42.262;12.210;2022-09-21T14:11:38;97435.44;;;29.91;67.29
74868;BME280;63419;42.262;12.210;2022-09-21T14:24:44;97452.28;;;27.04;89.28
74868;BME280;63419;42.262;12.210;2022-09-21T14:27:43;97452.03;;;28.10;87.48
74868;BME280;63419;42.262;12.210;2022-09-21T14:30:21;97449.22;;;28.76;72.46
74868;BME280;63419;42.262;12.210;2022-09-21T14:35:37;97460.03;;;26.98;89.49
74868;BME280;63419;42.262;12.210;2022-09-21T14:38:18;97453.50;;;26.68;92.12
74868;BME280;63419;42.262;12.210;2022-09-21T14:40:55;97434.25;;;29.07;78.42
74868;BME280;63419;42.262;12.210;2022-09-21T14:43:32;97433.66;;;29.67;65.66
74868;BME280;63419;42.262;12.210;2022-09-21T14:46:27;97440.69;;;28.74;69.56
74868;BME280;63419;42.262;12.210;2022-09-21T14:49:49;97425.06;;;32.09;62.01
74868;BME280;63419;42.262;12.210;2022-09-21T15:02:21;97454.06;;;28.22;74.86
74868;BME280;63419;42.262;12.210;2022-09-21T15:11:28;97426.50;;;32.29;53.98
74868;BME280;63419;42.262;12.210;2022-09-21T15:16:49;97421.25;;;32.05;56.05
74868;BME280;63419;42.262;12.210;2022-09-21T15:19:32;97426.66;;;31.81;58.17
74868;BME280;63419;42.262;12.210;2022-09-21T15:22:21;97434.91;;;30.85;60.48
74868;BME280;63419;42.262;12.210;2022-09-21T15:24:57;97432.97;;;31.28;57.89
74868;BME280;63419;42.262;12.210;2022-09-21T15:27:29;97440.84;;;31.23;60.73
74868;BME280;63419;42.262;12.210;2022-09-21T15:30:01;97441.13;;;29.76;63.54
74868;BME280;63419;42.262;12.210;2022-09-21T15:32:44;97453.56;;;28.32;72.76
74868;BME280;63419;42.262;12.210;2022-09-21T15:35:25;97442.31;;;29.99;63.53
74868;BME280;63419;42.262;12.210;2022-09-21T15:37:54;97439.84;;;29.97;63.50
74868;BME280;63419;42.262;12.210;2022-09-21T15:40:45;97443.53;;;29.96;65.30
74868;BME280;63419;42.262;12.210;2022-09-21T15:45:57;97441.75;;;30.09;61.48
74868;BME280;63419;42.262;12.210;2022-09-21T15:48:43;97438.63;;;29.63;66.59
74868;BME280;63419;42.262;12.210;2022-09-21T15:51:30;97447.78;;;28.41;67.84
74868;BME280;63419;42.262;12.210;2022-09-21T15:57:24;97455.56;;;29.00;66.15
74868;BME280;63419;42.262;12.210;2022-09-21T15:59:53;97450.91;;;29.20;67.24
74868;BME280;63419;42.262;12.210;2022-09-21T16:02:33;97453.06;;;28.55;71.01
74868;BME280;63419;42.262;12.210;2022-09-21T16:05:01;97459.00;;;27.13;74.54
74868;BME280;63419;42.262;12.210;2022-09-21T16:07:34;97467.22;;;27.90;73.10
74868;BME280;63419;42.262;12.210;2022-09-21T16:10:42;97469.38;;;27.54;73.01
74868;BME280;63419;42.262;12.210;2022-09-21T16:13:18;97464.41;;;27.71;74.30
74868;BME280;63419;42.262;12.210;2022-09-21T16:16:11;97466.31;;;27.51;80.03
74868;BME280;63419;42.262;12.210;2022-09-21T16:18:53;97467.78;;;27.07;80.52
74868;BME280;63419;42.262;12.210;2022-09-21T16:21:33;97477.72;;;27.18;84.47
74868;BME280;63419;42.262;12.210;2022-09-21T16:24:24;97478.22;;;26.13;89.29
74868;BME280;63419;42.262;12.210;2022-09-21T16:26:59;97473.25;;;26.72;87.82
74868;BME280;63419;42.262;12.210;2022-09-21T16:29:42;97474.91;;;26.73;88.48
74868;BME280;63419;42.262;12.210;2022-09-21T16:35:27;97469.38;;;26.68;90.67
74868;BME280;63419;42.262;12.210;2022-09-21T16:38:00;97478.13;;;25.65;96.50
74868;BME280;63419;42.262;12.210;2022-09-21T16:40:27;97477.81;;;24.90;100.00
74868;BME280;63419;42.262;12.210;2022-09-21T16:42:58;97492.44;;;24.13;100.00
74868;BME280;63419;42.262;12.210;2022-09-21T16:45:30;97490.34;;;23.79;100.00
74868;BME280;63419;42.262;12.210;2022-09-21T16:47:59;97498.31;;;23.26;100.00
74868;BME280;63419;42.262;12.210;2022-09-21T16:50:32;97499.06;;;22.50;100.00
74868;BME280;63419;42.262;12.210;2022-09-21T16:53:04;97501.06;;;22.09;100.00
74868;BME280;63419;42.262;12.210;2022-09-21T16:55:34;97501.75;;;21.46;100.00
74868;BME280;63419;42.262;12.210;2022-09-21T16:58:03;97502.91;;;20.86;100.00
74868;BME280;63419;42.262;12.210;2022-09-21T17:00:36;97494.53;;;21.24;100.00